sensor_id;sensor_type;location;lat;lon;timestamp;temperature;humidity
27797;DHT22;15177;50.844;4.412;2022-12-16T00:01:14;1.30;99.90
27797;DHT22;15177;50.844;4.412;2022-12-16T00:03:45;1.20;99.90
27797;DHT22;15177;50.844;4.412;2022-12-16T00:06:12;1.30;99.90
27797;DHT22;15177;50.844;4.412;2022-12-16T00:08:38;1.30;99.90
27797;DHT22;15177;50.844;4.412;2022-12-16T00:11:07;1.40;99.90
27797;DHT22;15177;50.844;4.412;2022-12-16T00:13:33;1.40;99.90
27797;DHT22;15177;50.844;4.412;2022-12-16T00:16:04;1.50;99.90
27797;DHT22;15177;50.844;4.412;2022-12-16T00:18:30;1.50;99.90
27797;DHT22;15177;50.844;4.412;2022-12-16T00:20:55;1.50;99.90
27797;DHT22;15177;50.844;4.412;2022-12-16T00:23:22;1.70;99.90
27797;DHT22;15177;50.844;4.412;2022-12-16T00:25:48;1.80;99.90
27797;DHT22;15177;50.844;4.412;2022-12-16T00:28:15;1.80;99.90
27797;DHT22;15177;50.844;4.412;2022-12-16T00:30:41;1.80;99.90
27797;DHT22;15177;50.844;4.412;2022-12-16T00:33:07;1.80;99.90
27797;DHT22;15177;50.844;4.412;2022-12-16T00:35:33;1.90;99.90
27797;DHT22;15177;50.844;4.412;2022-12-16T00:37:59;2.00;99.90
27797;DHT22;15177;50.844;4.412;2022-12-16T00:40:25;2.10;99.90
27797;DHT22;15177;50.844;4.412;2022-12-16T00:42:50;2.30;99.90
27797;DHT22;15177;50.844;4.412;2022-12-16T00:45:17;2.40;99.90
27797;DHT22;15177;50.844;4.412;2022-12-16T00:47:42;2.50;99.90
27797;DHT22;15177;50.844;4.412;2022-12-16T00:50:08;2.50;99.90
27797;DHT22;15177;50.844;4.412;2022-12-16T00:52:35;2.50;99.90
27797;DHT22;15177;50.844;4.412;2022-12-16T00:55:02;2.50;99.90
27797;DHT22;15177;50.844;4.412;2022-12-16T00:57:28;2.60;99.90
27797;DHT22;15177;50.844;4.412;2022-12-16T00:59:53;2.50;99.90
27797;DHT22;15177;50.844;4.412;2022-12-16T01:02:19;2.60;99.90
27797;DHT22;15177;50.844;4.412;2022-12-16T01:04:46;2.70;99.90
27797;DHT22;15177;50.844;4.412;2022-12-16T01:07:11;2.60;99.90
27797;DHT22;15177;50.844;4.412;2022-12-16T01:09:37;2.70;99.90
27797;DHT22;15177;50.844;4.412;2022-12-16T01:12:03;2.80;99.90
27797;DHT22;15177;50.844;4.412;2022-12-16T01:14:28;2.90;99.90
27797;DHT22;15177;50.844;4.412;2022-12-16T01:16:55;2.80;99.90
27797;DHT22;15177;50.844;4.412;2022-12-16T01:19:21;2.90;99.90
27797;DHT22;15177;50.844;4.412;2022-12-16T01:21:46;2.90;99.90
27797;DHT22;15177;50.844;4.412;2022-12-16T01:24:12;3.00;99.90
27797;DHT22;15177;50.844;4.412;2022-12-16T01:26:38;2.90;99.90
27797;DHT22;15177;50.844;4.412;2022-12-16T01:29:04;2.80;99.90
27797;DHT22;15177;50.844;4.412;2022-12-16T01:31:31;2.80;99.90
27797;DHT22;15177;50.844;4.412;2022-12-16T01:33:57;2.80;99.90
27797;DHT22;15177;50.844;4.412;2022-12-16T01:36:24;2.80;99.90
27797;DHT22;15177;50.844;4.412;2022-12-16T01:38:51;2.70;99.90
27797;DHT22;15177;50.844;4.412;2022-12-16T01:41:16;2.70;99.90
27797;DHT22;15177;50.844;4.412;2022-12-16T01:43:44;2.80;99.90
27797;DHT22;15177;50.844;4.412;2022-12-16T01:48:55;2.60;99.90
27797;DHT22;15177;50.844;4.412;2022-12-16T01:51:38;2.70;99.90
27797;DHT22;15177;50.844;4.412;2022-12-16T01:54:18;2.50;99.90
27797;DHT22;15177;50.844;4.412;2022-12-16T01:56:53;2.60;99.90
27797;DHT22;15177;50.844;4.412;2022-12-16T01:59:21;2.70;99.90
27797;DHT22;15177;50.844;4.412;2022-12-16T02:01:48;2.60;99.90
27797;DHT22;15177;50.844;4.412;2022-12-16T02:04:14;2.60;99.90
27797;DHT22;15177;50.844;4.412;2022-12-16T02:06:40;2.70;99.90
27797;DHT22;15177;50.844;4.412;2022-12-16T02:09:08;2.70;99.90
27797;DHT22;15177;50.844;4.412;2022-12-16T02:12:06;2.70;99.90
27797;DHT22;15177;50.844;4.412;2022-12-16T02:18:31;2.90;99.90
27797;DHT22;15177;50.844;4.412;2022-12-16T02:34:58;2.90;99.90
27797;DHT22;15177;50.844;4.412;2022-12-16T02:40:36;3.00;99.90
27797;DHT22;15177;50.844;4.412;2022-12-16T02:43:13;3.10;99.90
27797;DHT22;15177;50.844;4.412;2022-12-16T02:45:41;3.10;99.90
27797;DHT22;15177;50.844;4.412;2022-12-16T02:48:07;3.10;99.90
27797;DHT22;15177;50.844;4.412;2022-12-16T02:50:51;3.20;99.90
27797;DHT22;15177;50.844;4.412;2022-12-16T02:53:20;3.20;99.90
27797;DHT22;15177;50.844;4.412;2022-12-16T02:56:17;3.30;99.90
27797;DHT22;15177;50.844;4.412;2022-12-16T03:04:01;3.30;99.90
27797;DHT22;15177;50.844;4.412;2022-12-16T03:06:29;3.30;99.90
27797;DHT22;15177;50.844;4.412;2022-12-16T03:08:58;3.20;99.90
27797;DHT22;15177;50.844;4.412;2022-12-16T03:11:27;3.00;99.90
27797;DHT22;15177;50.844;4.412;2022-12-16T03:13:55;2.90;99.90
27797;DHT22;15177;50.844;4.412;2022-12-16T03:16:25;3.00;99.90
27797;DHT22;15177;50.844;4.412;2022-12-16T03:18:58;3.10;99.90
27797;DHT22;15177;50.844;4.412;2022-12-16T03:21:29;3.10;99.90
27797;DHT22;15177;50.844;4.412;2022-12-16T03:24:04;2.90;99.90
27797;DHT22;15177;50.844;4.412;2022-12-16T03:34:26;2.90;99.90
27797;DHT22;15177;50.844;4.412;2022-12-16T03:36:58;3.00;99.90
27797;DHT22;15177;50.844;4.412;2022-12-16T03:39:25;2.90;99.90
27797;DHT22;15177;50.844;4.412;2022-12-16T03:41:52;3.10;99.90
27797;DHT22;15177;50.844;4.412;2022-12-16T03:44:22;3.00;99.90
27797;DHT22;15177;50.844;4.412;2022-12-16T03:46:50;3.10;99.90
27797;DHT22;15177;50.844;4.412;2022-12-16T03:49:15;3.20;99.90
27797;DHT22;15177;50.844;4.412;2022-12-16T03:51:41;3.20;99.90
27797;DHT22;15177;50.844;4.412;2022-12-16T03:54:07;3.10;99.90
27797;DHT22;15177;50.844;4.412;2022-12-16T03:56:32;3.10;99.90
27797;DHT22;15177;50.844;4.412;2022-12-16T03:58:58;3.00;99.90
27797;DHT22;15177;50.844;4.412;2022-12-16T04:01:24;3.00;99.90
27797;DHT22;15177;50.844;4.412;2022-12-16T04:03:50;3.10;99.90
27797;DHT22;15177;50.844;4.412;2022-12-16T04:06:16;3.10;99.90
27797;DHT22;15177;50.844;4.412;2022-12-16T04:08:44;2.90;99.90
27797;DHT22;15177;50.844;4.412;2022-12-16T04:11:11;2.90;99.90
27797;DHT22;15177;50.844;4.412;2022-12-16T04:13:57;2.80;99.90
27797;DHT22;15177;50.844;4.412;2022-12-16T04:16:42;2.80;99.90
27797;DHT22;15177;50.844;4.412;2022-12-16T04:19:32;2.80;99.90
27797;DHT22;15177;50.844;4.412;2022-12-16T04:22:31;2.80;99.90
27797;DHT22;15177;50.844;4.412;2022-12-16T04:25:23;2.80;99.90
27797;DHT22;15177;50.844;4.412;2022-12-16T04:27:50;2.80;99.90
27797;DHT22;15177;50.844;4.412;2022-12-16T04:30:17;2.90;99.90
27797;DHT22;15177;50.844;4.412;2022-12-16T04:32:48;2.70;99.90
27797;DHT22;15177;50.844;4.412;2022-12-16T04:35:33;2.80;99.90
27797;DHT22;15177;50.844;4.412;2022-12-16T04:38:17;2.80;99.90
27797;DHT22;15177;50.844;4.412;2022-12-16T04:41:01;2.80;99.90
27797;DHT22;15177;50.844;4.412;2022-12-16T04:43:47;2.90;99.90
27797;DHT22;15177;50.844;4.412;2022-12-16T04:46:31;2.80;99.90
27797;DHT22;15177;50.844;4.412;2022-12-16T04:49:15;2.90;99.90
27797;DHT22;15177;50.844;4.412;2022-12-16T04:51:59;2.70;99.90
27797;DHT22;15177;50.844;4.412;2022-12-16T04:54:43;2.80;99.90
27797;DHT22;15177;50.844;4.412;2022-12-16T04:57:28;2.80;99.90
27797;DHT22;15177;50.844;4.412;2022-12-16T05:00:12;2.90;99.90
27797;DHT22;15177;50.844;4.412;2022-12-16T05:02:56;2.80;99.90
27797;DHT22;15177;50.844;4.412;2022-12-16T05:05:41;2.70;99.90
27797;DHT22;15177;50.844;4.412;2022-12-16T05:08:26;2.80;99.90
27797;DHT22;15177;50.844;4.412;2022-12-16T05:11:10;2.70;99.90
27797;DHT22;15177;50.844;4.412;2022-12-16T05:13:55;2.80;99.90
27797;DHT22;15177;50.844;4.412;2022-12-16T05:16:39;2.70;99.90
27797;DHT22;15177;50.844;4.412;2022-12-16T05:19:24;2.70;99.90
27797;DHT22;15177;50.844;4.412;2022-12-16T05:22:08;2.60;99.90
27797;DHT22;15177;50.844;4.412;2022-12-16T05:24:52;2.60;99.90
27797;DHT22;15177;50.844;4.412;2022-12-16T05:27:36;2.70;99.90
27797;DHT22;15177;50.844;4.412;2022-12-16T05:30:20;2.70;99.90
27797;DHT22;15177;50.844;4.412;2022-12-16T05:33:04;2.80;99.90
27797;DHT22;15177;50.844;4.412;2022-12-16T05:35:48;2.70;99.90
27797;DHT22;15177;50.844;4.412;2022-12-16T05:38:34;2.60;99.90
27797;DHT22;15177;50.844;4.412;2022-12-16T05:41:18;2.70;99.90
27797;DHT22;15177;50.844;4.412;2022-12-16T05:44:02;2.80;99.90
27797;DHT22;15177;50.844;4.412;2022-12-16T05:46:48;2.80;99.90
27797;DHT22;15177;50.844;4.412;2022-12-16T05:49:33;2.90;99.90
27797;DHT22;15177;50.844;4.412;2022-12-16T05:52:17;2.90;99.90
27797;DHT22;15177;50.844;4.412;2022-12-16T05:55:02;3.00;99.90
27797;DHT22;15177;50.844;4.412;2022-12-16T05:57:53;3.00;99.90
27797;DHT22;15177;50.844;4.412;2022-12-16T06:00:42;3.00;99.90
27797;DHT22;15177;50.844;4.412;2022-12-16T06:03:26;2.90;99.90
27797;DHT22;15177;50.844;4.412;2022-12-16T06:06:10;3.10;99.90
27797;DHT22;15177;50.844;4.412;2022-12-16T06:08:54;2.90;99.90
27797;DHT22;15177;50.844;4.412;2022-12-16T06:11:38;2.90;99.90
27797;DHT22;15177;50.844;4.412;2022-12-16T06:14:22;3.00;99.90
27797;DHT22;15177;50.844;4.412;2022-12-16T06:17:06;3.00;99.90
27797;DHT22;15177;50.844;4.412;2022-12-16T06:19:50;3.20;99.90
27797;DHT22;15177;50.844;4.412;2022-12-16T06:22:35;3.10;99.90
27797;DHT22;15177;50.844;4.412;2022-12-16T06:25:19;3.10;99.90
27797;DHT22;15177;50.844;4.412;2022-12-16T06:28:06;3.00;99.90
27797;DHT22;15177;50.844;4.412;2022-12-16T06:30:51;3.00;99.90
27797;DHT22;15177;50.844;4.412;2022-12-16T06:33:35;3.10;99.90
27797;DHT22;15177;50.844;4.412;2022-12-16T06:36:19;3.10;99.90
27797;DHT22;15177;50.844;4.412;2022-12-16T06:39:04;3.10;99.90
27797;DHT22;15177;50.844;4.412;2022-12-16T06:41:49;3.00;99.90
27797;DHT22;15177;50.844;4.412;2022-12-16T06:44:33;2.90;99.90
27797;DHT22;15177;50.844;4.412;2022-12-16T06:47:17;2.90;99.90
27797;DHT22;15177;50.844;4.412;2022-12-16T06:50:01;2.90;99.90
27797;DHT22;15177;50.844;4.412;2022-12-16T06:52:45;2.80;99.90
27797;DHT22;15177;50.844;4.412;2022-12-16T06:55:30;2.60;99.90
27797;DHT22;15177;50.844;4.412;2022-12-16T06:58:15;2.60;99.90
27797;DHT22;15177;50.844;4.412;2022-12-16T07:01:01;2.70;99.90
27797;DHT22;15177;50.844;4.412;2022-12-16T07:03:45;2.70;99.90
27797;DHT22;15177;50.844;4.412;2022-12-16T07:06:29;2.80;99.90
27797;DHT22;15177;50.844;4.412;2022-12-16T07:09:13;2.70;99.90
27797;DHT22;15177;50.844;4.412;2022-12-16T07:11:57;2.90;99.90
27797;DHT22;15177;50.844;4.412;2022-12-16T07:14:41;3.20;99.90
27797;DHT22;15177;50.844;4.412;2022-12-16T07:17:26;3.10;99.90
27797;DHT22;15177;50.844;4.412;2022-12-16T07:20:10;3.20;99.90
27797;DHT22;15177;50.844;4.412;2022-12-16T07:22:55;3.10;99.90
27797;DHT22;15177;50.844;4.412;2022-12-16T07:25:39;3.20;99.90
27797;DHT22;15177;50.844;4.412;2022-12-16T07:28:24;3.30;99.90
27797;DHT22;15177;50.844;4.412;2022-12-16T07:31:08;3.20;99.90
27797;DHT22;15177;50.844;4.412;2022-12-16T07:33:53;3.30;99.90
27797;DHT22;15177;50.844;4.412;2022-12-16T07:36:37;3.30;99.90
27797;DHT22;15177;50.844;4.412;2022-12-16T07:39:22;3.40;99.90
27797;DHT22;15177;50.844;4.412;2022-12-16T07:42:06;3.30;99.90
27797;DHT22;15177;50.844;4.412;2022-12-16T07:44:51;3.20;99.90
27797;DHT22;15177;50.844;4.412;2022-12-16T07:47:36;3.20;99.90
27797;DHT22;15177;50.844;4.412;2022-12-16T07:50:22;3.10;99.90
27797;DHT22;15177;50.844;4.412;2022-12-16T07:53:07;2.80;99.90
27797;DHT22;15177;50.844;4.412;2022-12-16T07:55:51;2.90;99.90
27797;DHT22;15177;50.844;4.412;2022-12-16T07:58:43;2.90;99.90
27797;DHT22;15177;50.844;4.412;2022-12-16T08:01:27;3.00;99.90
27797;DHT22;15177;50.844;4.412;2022-12-16T08:04:16;3.00;99.90
27797;DHT22;15177;50.844;4.412;2022-12-16T08:07:04;3.00;99.90
27797;DHT22;15177;50.844;4.412;2022-12-16T08:09:53;3.00;99.90
27797;DHT22;15177;50.844;4.412;2022-12-16T08:12:42;3.00;99.90
27797;DHT22;15177;50.844;4.412;2022-12-16T08:15:27;3.10;99.90
27797;DHT22;15177;50.844;4.412;2022-12-16T08:18:11;3.00;99.90
27797;DHT22;15177;50.844;4.412;2022-12-16T08:20:56;3.00;99.90
27797;DHT22;15177;50.844;4.412;2022-12-16T08:23:40;3.10;99.90
27797;DHT22;15177;50.844;4.412;2022-12-16T08:26:25;3.10;99.90
27797;DHT22;15177;50.844;4.412;2022-12-16T08:29:09;3.00;99.90
27797;DHT22;15177;50.844;4.412;2022-12-16T08:31:54;2.80;99.90
27797;DHT22;15177;50.844;4.412;2022-12-16T08:34:42;2.90;99.90
27797;DHT22;15177;50.844;4.412;2022-12-16T08:37:31;2.90;99.90
27797;DHT22;15177;50.844;4.412;2022-12-16T08:40:22;2.90;99.90
27797;DHT22;15177;50.844;4.412;2022-12-16T08:43:06;2.90;99.90
27797;DHT22;15177;50.844;4.412;2022-12-16T08:45:58;3.10;99.90
27797;DHT22;15177;50.844;4.412;2022-12-16T08:48:44;3.20;99.90
27797;DHT22;15177;50.844;4.412;2022-12-16T08:51:36;3.20;99.90
27797;DHT22;15177;50.844;4.412;2022-12-16T08:54:21;3.10;99.90
27797;DHT22;15177;50.844;4.412;2022-12-16T08:57:06;3.20;99.90
27797;DHT22;15177;50.844;4.412;2022-12-16T08:59:51;3.20;99.90
27797;DHT22;15177;50.844;4.412;2022-12-16T09:02:35;3.30;99.90
27797;DHT22;15177;50.844;4.412;2022-12-16T09:05:20;3.30;99.90
27797;DHT22;15177;50.844;4.412;2022-12-16T09:07:58;3.30;99.90
27797;DHT22;15177;50.844;4.412;2022-12-16T09:10:35;3.20;99.90
27797;DHT22;15177;50.844;4.412;2022-12-16T09:13:21;3.20;99.90
27797;DHT22;15177;50.844;4.412;2022-12-16T09:16:06;3.30;99.90
27797;DHT22;15177;50.844;4.412;2022-12-16T09:18:50;3.30;99.90
27797;DHT22;15177;50.844;4.412;2022-12-16T09:21:27;3.20;99.90
27797;DHT22;15177;50.844;4.412;2022-12-16T09:24:11;3.20;99.90
27797;DHT22;15177;50.844;4.412;2022-12-16T09:26:57;3.10;99.90
27797;DHT22;15177;50.844;4.412;2022-12-16T09:29:34;3.20;99.90
27797;DHT22;15177;50.844;4.412;2022-12-16T09:32:10;3.30;99.90
27797;DHT22;15177;50.844;4.412;2022-12-16T09:34:48;3.30;99.90
27797;DHT22;15177;50.844;4.412;2022-12-16T09:37:23;3.40;99.90
27797;DHT22;15177;50.844;4.412;2022-12-16T09:40:04;3.30;99.90
27797;DHT22;15177;50.844;4.412;2022-12-16T09:43:07;3.30;99.90
27797;DHT22;15177;50.844;4.412;2022-12-16T09:51:58;3.70;99.90
27797;DHT22;15177;50.844;4.412;2022-12-16T09:54:45;3.80;99.90
27797;DHT22;15177;50.844;4.412;2022-12-16T09:57:32;4.00;99.90
27797;DHT22;15177;50.844;4.412;2022-12-16T10:00:25;3.90;99.90
27797;DHT22;15177;50.844;4.412;2022-12-16T10:06:59;3.90;99.90
27797;DHT22;15177;50.844;4.412;2022-12-16T10:09:49;3.60;99.90
27797;DHT22;15177;50.844;4.412;2022-12-16T10:15:52;3.70;99.90
27797;DHT22;15177;50.844;4.412;2022-12-16T10:21:20;3.70;99.90
27797;DHT22;15177;50.844;4.412;2022-12-16T10:24:16;3.80;99.90
27797;DHT22;15177;50.844;4.412;2022-12-16T10:27:13;3.90;99.90
27797;DHT22;15177;50.844;4.412;2022-12-16T10:29:50;3.80;99.90
27797;DHT22;15177;50.844;4.412;2022-12-16T10:32:49;3.80;99.90
27797;DHT22;15177;50.844;4.412;2022-12-16T10:35:46;3.70;99.90
27797;DHT22;15177;50.844;4.412;2022-12-16T10:38:51;3.80;99.90
27797;DHT22;15177;50.844;4.412;2022-12-16T10:41:39;3.90;99.90
27797;DHT22;15177;50.844;4.412;2022-12-16T10:44:30;4.00;99.90
27797;DHT22;15177;50.844;4.412;2022-12-16T10:47:19;4.00;99.90
27797;DHT22;15177;50.844;4.412;2022-12-16T10:50:13;4.00;99.90
27797;DHT22;15177;50.844;4.412;2022-12-16T10:53:00;4.30;99.90
27797;DHT22;15177;50.844;4.412;2022-12-16T10:58:54;4.10;99.90
27797;DHT22;15177;50.844;4.412;2022-12-16T11:01:39;4.00;99.90
27797;DHT22;15177;50.844;4.412;2022-12-16T11:04:34;4.00;99.90
27797;DHT22;15177;50.844;4.412;2022-12-16T11:10:31;3.80;99.90
27797;DHT22;15177;50.844;4.412;2022-12-16T11:13:18;3.80;99.90
27797;DHT22;15177;50.844;4.412;2022-12-16T11:16:25;3.80;99.90
27797;DHT22;15177;50.844;4.412;2022-12-16T11:19:22;3.90;99.90
27797;DHT22;15177;50.844;4.412;2022-12-16T11:22:15;3.80;99.90
27797;DHT22;15177;50.844;4.412;2022-12-16T11:27:49;3.70;99.90
27797;DHT22;15177;50.844;4.412;2022-12-16T11:30:33;3.80;99.90
27797;DHT22;15177;50.844;4.412;2022-12-16T11:33:22;3.70;99.90
27797;DHT22;15177;50.844;4.412;2022-12-16T11:36:14;3.60;99.90
27797;DHT22;15177;50.844;4.412;2022-12-16T11:39:00;3.50;99.90
27797;DHT22;15177;50.844;4.412;2022-12-16T11:42:02;3.40;99.90
27797;DHT22;15177;50.844;4.412;2022-12-16T11:45:05;3.50;99.90
27797;DHT22;15177;50.844;4.412;2022-12-16T11:47:57;3.50;99.90
27797;DHT22;15177;50.844;4.412;2022-12-16T11:50:54;3.60;99.90
27797;DHT22;15177;50.844;4.412;2022-12-16T11:53:59;3.50;99.90
27797;DHT22;15177;50.844;4.412;2022-12-16T11:56:48;3.40;99.90
27797;DHT22;15177;50.844;4.412;2022-12-16T11:59:41;3.60;99.90
27797;DHT22;15177;50.844;4.412;2022-12-16T12:02:41;3.50;99.90
27797;DHT22;15177;50.844;4.412;2022-12-16T12:08:47;3.60;99.90
27797;DHT22;15177;50.844;4.412;2022-12-16T12:11:50;3.40;99.90
27797;DHT22;15177;50.844;4.412;2022-12-16T12:18:42;3.50;99.90
27797;DHT22;15177;50.844;4.412;2022-12-16T12:24:58;4.00;99.90
27797;DHT22;15177;50.844;4.412;2022-12-16T12:28:04;4.00;99.90
27797;DHT22;15177;50.844;4.412;2022-12-16T12:31:07;3.90;99.90
27797;DHT22;15177;50.844;4.412;2022-12-16T12:37:25;3.70;99.90
27797;DHT22;15177;50.844;4.412;2022-12-16T12:40:29;3.70;99.90
27797;DHT22;15177;50.844;4.412;2022-12-16T12:43:38;3.90;99.90
27797;DHT22;15177;50.844;4.412;2022-12-16T12:49:49;3.90;99.90
27797;DHT22;15177;50.844;4.412;2022-12-16T12:58:54;3.90;99.90
27797;DHT22;15177;50.844;4.412;2022-12-16T13:01:42;3.90;99.90
27797;DHT22;15177;50.844;4.412;2022-12-16T13:04:27;4.10;99.90
27797;DHT22;15177;50.844;4.412;2022-12-16T13:07:14;4.00;99.90
27797;DHT22;15177;50.844;4.412;2022-12-16T13:16:05;4.00;99.90
27797;DHT22;15177;50.844;4.412;2022-12-16T13:22:34;3.90;99.90
27797;DHT22;15177;50.844;4.412;2022-12-16T13:28:38;3.80;99.90
27797;DHT22;15177;50.844;4.412;2022-12-16T13:31:23;4.10;99.90
27797;DHT22;15177;50.844;4.412;2022-12-16T13:37:00;4.20;99.90
27797;DHT22;15177;50.844;4.412;2022-12-16T13:42:49;4.00;99.90
27797;DHT22;15177;50.844;4.412;2022-12-16T13:45:43;4.10;99.90
27797;DHT22;15177;50.844;4.412;2022-12-16T13:48:40;4.30;99.90
27797;DHT22;15177;50.844;4.412;2022-12-16T13:54:28;4.10;99.90
27797;DHT22;15177;50.844;4.412;2022-12-16T13:57:14;3.90;99.90
27797;DHT22;15177;50.844;4.412;2022-12-16T14:00:04;3.90;99.90
27797;DHT22;15177;50.844;4.412;2022-12-16T14:02:49;3.90;99.90
27797;DHT22;15177;50.844;4.412;2022-12-16T14:05:36;4.20;99.90
27797;DHT22;15177;50.844;4.412;2022-12-16T14:08:30;4.20;99.90
27797;DHT22;15177;50.844;4.412;2022-12-16T14:11:45;4.00;99.90
27797;DHT22;15177;50.844;4.412;2022-12-16T14:14:34;4.00;99.90
27797;DHT22;15177;50.844;4.412;2022-12-16T14:17:25;4.10;99.90
27797;DHT22;15177;50.844;4.412;2022-12-16T14:20:22;4.30;99.90
27797;DHT22;15177;50.844;4.412;2022-12-16T14:23:30;4.10;99.90
27797;DHT22;15177;50.844;4.412;2022-12-16T14:26:34;3.90;99.90
27797;DHT22;15177;50.844;4.412;2022-12-16T14:29:27;3.80;99.90
27797;DHT22;15177;50.844;4.412;2022-12-16T14:35:19;3.80;99.90
27797;DHT22;15177;50.844;4.412;2022-12-16T14:38:23;3.80;99.90
27797;DHT22;15177;50.844;4.412;2022-12-16T14:41:19;3.80;99.90
27797;DHT22;15177;50.844;4.412;2022-12-16T14:44:20;3.70;99.90
27797;DHT22;15177;50.844;4.412;2022-12-16T14:47:11;3.70;99.90
27797;DHT22;15177;50.844;4.412;2022-12-16T14:49:58;4.00;99.90
27797;DHT22;15177;50.844;4.412;2022-12-16T14:52:42;4.00;99.90
27797;DHT22;15177;50.844;4.412;2022-12-16T14:55:33;4.00;99.90
27797;DHT22;15177;50.844;4.412;2022-12-16T14:58:22;3.90;99.90
27797;DHT22;15177;50.844;4.412;2022-12-16T15:01:21;3.80;99.90
27797;DHT22;15177;50.844;4.412;2022-12-16T15:04:15;3.70;99.90
27797;DHT22;15177;50.844;4.412;2022-12-16T15:07:02;3.80;99.90
27797;DHT22;15177;50.844;4.412;2022-12-16T15:09:49;3.70;99.90
27797;DHT22;15177;50.844;4.412;2022-12-16T15:12:41;3.50;99.90
27797;DHT22;15177;50.844;4.412;2022-12-16T15:15:40;3.50;99.90
27797;DHT22;15177;50.844;4.412;2022-12-16T15:18:47;3.50;99.90
27797;DHT22;15177;50.844;4.412;2022-12-16T15:21:34;3.50;99.90
27797;DHT22;15177;50.844;4.412;2022-12-16T15:24:22;3.40;99.90
27797;DHT22;15177;50.844;4.412;2022-12-16T15:29:58;3.60;99.90
27797;DHT22;15177;50.844;4.412;2022-12-16T15:32:51;3.50;99.90
27797;DHT22;15177;50.844;4.412;2022-12-16T15:35:36;3.60;99.90
27797;DHT22;15177;50.844;4.412;2022-12-16T15:38:30;3.50;99.90
27797;DHT22;15177;50.844;4.412;2022-12-16T15:41:35;3.50;99.90
27797;DHT22;15177;50.844;4.412;2022-12-16T15:44:24;3.40;99.90
27797;DHT22;15177;50.844;4.412;2022-12-16T15:47:33;3.40;99.90
27797;DHT22;15177;50.844;4.412;2022-12-16T15:50:21;3.40;99.90
27797;DHT22;15177;50.844;4.412;2022-12-16T15:53:22;3.40;99.90
27797;DHT22;15177;50.844;4.412;2022-12-16T15:56:40;3.30;99.90
27797;DHT22;15177;50.844;4.412;2022-12-16T15:59:30;3.30;99.90
27797;DHT22;15177;50.844;4.412;2022-12-16T16:05:30;3.20;99.90
27797;DHT22;15177;50.844;4.412;2022-12-16T16:08:14;3.20;99.90
27797;DHT22;15177;50.844;4.412;2022-12-16T16:10:59;3.10;99.90
27797;DHT22;15177;50.844;4.412;2022-12-16T16:13:44;3.10;99.90
27797;DHT22;15177;50.844;4.412;2022-12-16T16:16:29;3.10;99.90
27797;DHT22;15177;50.844;4.412;2022-12-16T16:19:24;3.00;99.90
27797;DHT22;15177;50.844;4.412;2022-12-16T16:22:15;3.00;99.90
27797;DHT22;15177;50.844;4.412;2022-12-16T16:25:00;3.00;99.90
27797;DHT22;15177;50.844;4.412;2022-12-16T16:27:44;3.10;99.90
27797;DHT22;15177;50.844;4.412;2022-12-16T16:30:29;3.00;99.90
27797;DHT22;15177;50.844;4.412;2022-12-16T16:33:13;3.00;99.90
27797;DHT22;15177;50.844;4.412;2022-12-16T16:35:58;2.90;99.90
27797;DHT22;15177;50.844;4.412;2022-12-16T16:38:42;2.90;99.90
27797;DHT22;15177;50.844;4.412;2022-12-16T16:41:26;2.90;99.90
27797;DHT22;15177;50.844;4.412;2022-12-16T16:44:10;2.90;99.90
27797;DHT22;15177;50.844;4.412;2022-12-16T16:46:55;2.80;99.90
27797;DHT22;15177;50.844;4.412;2022-12-16T16:49:42;2.80;99.90
27797;DHT22;15177;50.844;4.412;2022-12-16T16:52:49;2.80;99.90
27797;DHT22;15177;50.844;4.412;2022-12-16T16:55:34;2.80;99.90
27797;DHT22;15177;50.844;4.412;2022-12-16T17:01:05;2.80;99.90
27797;DHT22;15177;50.844;4.412;2022-12-16T17:03:49;2.70;99.90
27797;DHT22;15177;50.844;4.412;2022-12-16T17:06:33;2.70;99.90
27797;DHT22;15177;50.844;4.412;2022-12-16T17:09:17;2.70;99.90
27797;DHT22;15177;50.844;4.412;2022-12-16T17:12:01;2.70;99.90
27797;DHT22;15177;50.844;4.412;2022-12-16T17:14:52;2.70;99.90
27797;DHT22;15177;50.844;4.412;2022-12-16T17:17:36;2.70;99.90
27797;DHT22;15177;50.844;4.412;2022-12-16T17:20:21;2.70;99.90
27797;DHT22;15177;50.844;4.412;2022-12-16T17:23:06;2.70;99.90
27797;DHT22;15177;50.844;4.412;2022-12-16T17:26:00;2.70;99.90
27797;DHT22;15177;50.844;4.412;2022-12-16T17:28:45;2.60;99.90
27797;DHT22;15177;50.844;4.412;2022-12-16T17:31:29;2.60;99.90
27797;DHT22;15177;50.844;4.412;2022-12-16T17:34:13;2.60;99.90
27797;DHT22;15177;50.844;4.412;2022-12-16T17:36:57;2.60;99.90
27797;DHT22;15177;50.844;4.412;2022-12-16T17:39:53;2.60;99.90
27797;DHT22;15177;50.844;4.412;2022-12-16T17:42:38;2.50;99.90
27797;DHT22;15177;50.844;4.412;2022-12-16T17:45:22;2.60;99.90
27797;DHT22;15177;50.844;4.412;2022-12-16T17:48:06;2.60;99.90
27797;DHT22;15177;50.844;4.412;2022-12-16T17:50:51;2.50;99.90
27797;DHT22;15177;50.844;4.412;2022-12-16T17:53:35;2.50;99.90
27797;DHT22;15177;50.844;4.412;2022-12-16T17:56:19;2.50;99.90
27797;DHT22;15177;50.844;4.412;2022-12-16T17:59:03;2.40;99.90
27797;DHT22;15177;50.844;4.412;2022-12-16T18:01:47;2.40;99.90
27797;DHT22;15177;50.844;4.412;2022-12-16T18:04:31;2.40;99.90
27797;DHT22;15177;50.844;4.412;2022-12-16T18:07:17;2.40;99.90
27797;DHT22;15177;50.844;4.412;2022-12-16T18:10:01;2.30;99.90
27797;DHT22;15177;50.844;4.412;2022-12-16T18:12:45;2.30;99.90
27797;DHT22;15177;50.844;4.412;2022-12-16T18:15:29;2.30;99.90
27797;DHT22;15177;50.844;4.412;2022-12-16T18:18:13;2.30;99.90
27797;DHT22;15177;50.844;4.412;2022-12-16T18:21:08;2.30;99.90
27797;DHT22;15177;50.844;4.412;2022-12-16T18:23:52;2.20;99.90
27797;DHT22;15177;50.844;4.412;2022-12-16T18:26:36;2.20;99.90
27797;DHT22;15177;50.844;4.412;2022-12-16T18:29:20;2.20;99.90
27797;DHT22;15177;50.844;4.412;2022-12-16T18:32:05;2.20;99.90
27797;DHT22;15177;50.844;4.412;2022-12-16T18:34:49;2.20;99.90
27797;DHT22;15177;50.844;4.412;2022-12-16T18:37:34;2.20;99.90
27797;DHT22;15177;50.844;4.412;2022-12-16T18:40:18;2.10;99.90
27797;DHT22;15177;50.844;4.412;2022-12-16T18:43:02;2.10;99.90
27797;DHT22;15177;50.844;4.412;2022-12-16T18:45:54;2.10;99.90
27797;DHT22;15177;50.844;4.412;2022-12-16T18:48:39;2.10;99.90
27797;DHT22;15177;50.844;4.412;2022-12-16T18:51:23;2.10;99.90
27797;DHT22;15177;50.844;4.412;2022-12-16T18:54:08;2.00;99.90
27797;DHT22;15177;50.844;4.412;2022-12-16T18:56:52;2.00;99.90
27797;DHT22;15177;50.844;4.412;2022-12-16T18:59:36;2.00;99.90
27797;DHT22;15177;50.844;4.412;2022-12-16T19:02:20;2.00;99.90
27797;DHT22;15177;50.844;4.412;2022-12-16T19:05:05;1.90;99.90
27797;DHT22;15177;50.844;4.412;2022-12-16T19:07:49;1.90;99.90
27797;DHT22;15177;50.844;4.412;2022-12-16T19:10:34;1.90;99.90
27797;DHT22;15177;50.844;4.412;2022-12-16T19:13:18;1.90;99.90
27797;DHT22;15177;50.844;4.412;2022-12-16T19:16:03;1.90;99.90
27797;DHT22;15177;50.844;4.412;2022-12-16T19:18:47;1.90;99.90
27797;DHT22;15177;50.844;4.412;2022-12-16T19:21:31;1.80;99.90
27797;DHT22;15177;50.844;4.412;2022-12-16T19:24:17;1.80;99.90
27797;DHT22;15177;50.844;4.412;2022-12-16T19:27:03;1.80;99.90